首页
METAR-TAF:

METAR-TAF

机场 :

蒂米什瓦拉, 罗马尼亚

纬度: 45-46N, 经度: 021-15E, 海拔: 86米

当前天气观测

该预报发布于44分钟前的22:00 UTC
风速3节,风向
温度 0°C
湿度 100%
气压 1033 hPa
能見度: 8000

METAR: LRTR 022200Z 09003KT 8000 NSC 00/00 Q1033

时间: 00:44 (22:44 UTC)

预报

该预报发布于5小时和44分钟前的17:00 UTC
预报有效从02日的 18点(UTC)到 03日的 18点(UTC)
风速4节,风向多变
能见度10公里或以上
1500米以下无云,无积雨云
短暂存在
从 03日的 01点(UTC)到 03日的 07点(UTC)
能見度: 5000
轻雾
几率 30% :
短暂存在
从 03日的 03点(UTC)到 03日的 06点(UTC)
能見度: 1500
轻雾

TAF: LRTR 021700Z 0218/0318 VRB04KT CAVOK TEMPO 0301/0307 5000 BR PROB30 TEMPO 0303/0306 1500 BR

超过4000个机场的气象观测和天气预报(METAR&TAF报告)。

可查询的气象台以黄色和红色小点在地图上表示。

将鼠标移到小点上方,可查看气象台名称。

然后点击查看天气观测和预报。

如需切换地图:点击带黑十字的绿色按钮放大地图;点击带横线的绿色按钮缩小地图;或者点击绿色箭头查看邻近地区的地图。


METAR-TAF: